sensor_id;sensor_type;location;lat;lon;timestamp;temperature;humidity
20337;DHT22;10326;53.660;10.200;2022-10-29T00:00:49;19.50;84.50
20337;DHT22;10326;53.660;10.200;2022-10-29T00:03:16;19.40;84.40
20337;DHT22;10326;53.660;10.200;2022-10-29T00:05:54;19.40;84.40
20337;DHT22;10326;53.660;10.200;2022-10-29T00:08:22;19.30;84.70
20337;DHT22;10326;53.660;10.200;2022-10-29T00:10:49;19.30;84.60
20337;DHT22;10326;53.660;10.200;2022-10-29T00:13:16;19.20;84.60
20337;DHT22;10326;53.660;10.200;2022-10-29T00:15:44;19.20;84.70
20337;DHT22;10326;53.660;10.200;2022-10-29T00:18:11;19.20;84.80
20337;DHT22;10326;53.660;10.200;2022-10-29T00:20:38;19.10;84.80
20337;DHT22;10326;53.660;10.200;2022-10-29T00:23:05;19.10;84.90
20337;DHT22;10326;53.660;10.200;2022-10-29T00:25:32;19.10;84.90
20337;DHT22;10326;53.660;10.200;2022-10-29T00:27:59;19.10;84.90
20337;DHT22;10326;53.660;10.200;2022-10-29T00:30:26;19.00;84.90
20337;DHT22;10326;53.660;10.200;2022-10-29T00:32:55;19.00;85.00
20337;DHT22;10326;53.660;10.200;2022-10-29T00:35:22;19.00;85.10
20337;DHT22;10326;53.660;10.200;2022-10-29T00:37:49;19.00;85.10
20337;DHT22;10326;53.660;10.200;2022-10-29T00:40:16;19.00;85.20
20337;DHT22;10326;53.660;10.200;2022-10-29T00:42:43;19.00;85.20
20337;DHT22;10326;53.660;10.200;2022-10-29T00:45:17;19.00;85.20
20337;DHT22;10326;53.660;10.200;2022-10-29T00:47:48;19.00;85.40
20337;DHT22;10326;53.660;10.200;2022-10-29T00:50:20;19.00;85.30
20337;DHT22;10326;53.660;10.200;2022-10-29T00:52:49;19.00;85.40
20337;DHT22;10326;53.660;10.200;2022-10-29T00:55:19;18.90;85.20
20337;DHT22;10326;53.660;10.200;2022-10-29T00:57:49;18.90;85.30
20337;DHT22;10326;53.660;10.200;2022-10-29T01:00:19;18.90;85.30
20337;DHT22;10326;53.660;10.200;2022-10-29T01:02:47;18.90;85.30
20337;DHT22;10326;53.660;10.200;2022-10-29T01:05:18;18.90;85.30
20337;DHT22;10326;53.660;10.200;2022-10-29T01:07:47;18.90;85.40
20337;DHT22;10326;53.660;10.200;2022-10-29T01:10:15;18.80;85.20
20337;DHT22;10326;53.660;10.200;2022-10-29T01:13:06;18.80;85.30
20337;DHT22;10326;53.660;10.200;2022-10-29T01:15:44;18.80;85.50
20337;DHT22;10326;53.660;10.200;2022-10-29T01:18:19;18.80;85.30
20337;DHT22;10326;53.660;10.200;2022-10-29T01:27:47;18.70;85.50
20337;DHT22;10326;53.660;10.200;2022-10-29T01:30:21;18.70;85.40
20337;DHT22;10326;53.660;10.200;2022-10-29T01:33:09;18.70;85.20
20337;DHT22;10326;53.660;10.200;2022-10-29T01:35:46;18.70;85.50
20337;DHT22;10326;53.660;10.200;2022-10-29T01:38:23;18.60;85.30
20337;DHT22;10326;53.660;10.200;2022-10-29T01:41:02;18.60;85.40
20337;DHT22;10326;53.660;10.200;2022-10-29T01:43:37;18.60;85.30
20337;DHT22;10326;53.660;10.200;2022-10-29T01:46:07;18.60;85.40
20337;DHT22;10326;53.660;10.200;2022-10-29T01:48:41;18.60;85.40
20337;DHT22;10326;53.660;10.200;2022-10-29T01:51:20;18.50;85.50
20337;DHT22;10326;53.660;10.200;2022-10-29T01:53:50;18.50;85.60
20337;DHT22;10326;53.660;10.200;2022-10-29T01:56:17;18.50;85.60
20337;DHT22;10326;53.660;10.200;2022-10-29T01:58:47;18.40;85.60
20337;DHT22;10326;53.660;10.200;2022-10-29T02:01:25;18.40;85.70
20337;DHT22;10326;53.660;10.200;2022-10-29T02:04:09;18.40;86.00
20337;DHT22;10326;53.660;10.200;2022-10-29T02:06:56;18.40;85.90
20337;DHT22;10326;53.660;10.200;2022-10-29T02:09:30;18.40;86.00
20337;DHT22;10326;53.660;10.200;2022-10-29T02:12:07;18.30;85.90
20337;DHT22;10326;53.660;10.200;2022-10-29T02:14:43;18.30;85.90
20337;DHT22;10326;53.660;10.200;2022-10-29T02:17:13;18.40;86.00
20337;DHT22;10326;53.660;10.200;2022-10-29T02:19:41;18.30;85.90
20337;DHT22;10326;53.660;10.200;2022-10-29T02:22:08;18.30;86.00
20337;DHT22;10326;53.660;10.200;2022-10-29T02:24:35;18.30;85.90
20337;DHT22;10326;53.660;10.200;2022-10-29T02:27:02;18.30;86.00
20337;DHT22;10326;53.660;10.200;2022-10-29T02:29:29;18.20;86.00
20337;DHT22;10326;53.660;10.200;2022-10-29T02:31:56;18.20;86.10
20337;DHT22;10326;53.660;10.200;2022-10-29T02:34:23;18.20;86.10
20337;DHT22;10326;53.660;10.200;2022-10-29T02:36:52;18.20;86.10
20337;DHT22;10326;53.660;10.200;2022-10-29T02:39:19;18.20;86.10
20337;DHT22;10326;53.660;10.200;2022-10-29T02:41:46;18.20;86.10
20337;DHT22;10326;53.660;10.200;2022-10-29T02:44:13;18.20;86.10
20337;DHT22;10326;53.660;10.200;2022-10-29T02:46:40;18.10;86.10
20337;DHT22;10326;53.660;10.200;2022-10-29T02:49:07;18.10;86.10
20337;DHT22;10326;53.660;10.200;2022-10-29T02:51:34;18.10;86.30
20337;DHT22;10326;53.660;10.200;2022-10-29T02:54:03;18.10;86.30
20337;DHT22;10326;53.660;10.200;2022-10-29T02:56:30;18.10;86.40
20337;DHT22;10326;53.660;10.200;2022-10-29T02:58:57;18.10;86.30
20337;DHT22;10326;53.660;10.200;2022-10-29T03:01:24;18.10;86.30
20337;DHT22;10326;53.660;10.200;2022-10-29T03:03:51;18.10;86.40
20337;DHT22;10326;53.660;10.200;2022-10-29T03:06:19;18.10;86.60
20337;DHT22;10326;53.660;10.200;2022-10-29T03:08:46;18.10;86.50
20337;DHT22;10326;53.660;10.200;2022-10-29T03:11:16;18.10;86.50
20337;DHT22;10326;53.660;10.200;2022-10-29T03:13:43;18.00;86.40
20337;DHT22;10326;53.660;10.200;2022-10-29T03:16:10;18.10;86.40
20337;DHT22;10326;53.660;10.200;2022-10-29T03:18:37;18.00;86.20
20337;DHT22;10326;53.660;10.200;2022-10-29T03:21:04;18.00;86.20
20337;DHT22;10326;53.660;10.200;2022-10-29T03:23:31;18.00;86.30
20337;DHT22;10326;53.660;10.200;2022-10-29T03:25:58;18.00;86.30
20337;DHT22;10326;53.660;10.200;2022-10-29T03:28:26;18.00;86.20
20337;DHT22;10326;53.660;10.200;2022-10-29T03:30:55;18.10;86.30
20337;DHT22;10326;53.660;10.200;2022-10-29T03:33:23;18.00;86.20
20337;DHT22;10326;53.660;10.200;2022-10-29T03:35:55;18.00;86.20
20337;DHT22;10326;53.660;10.200;2022-10-29T03:38:23;18.00;86.30
20337;DHT22;10326;53.660;10.200;2022-10-29T03:40:50;18.00;86.20
20337;DHT22;10326;53.660;10.200;2022-10-29T03:43:17;18.00;86.20
20337;DHT22;10326;53.660;10.200;2022-10-29T03:45:50;18.00;86.20
20337;DHT22;10326;53.660;10.200;2022-10-29T03:48:17;18.00;86.30
20337;DHT22;10326;53.660;10.200;2022-10-29T03:50:44;17.90;86.10
20337;DHT22;10326;53.660;10.200;2022-10-29T03:53:19;17.90;86.20
20337;DHT22;10326;53.660;10.200;2022-10-29T03:55:46;17.90;86.10
20337;DHT22;10326;53.660;10.200;2022-10-29T03:58:15;17.90;86.00
20337;DHT22;10326;53.660;10.200;2022-10-29T04:00:42;17.90;86.00
20337;DHT22;10326;53.660;10.200;2022-10-29T04:03:11;18.00;86.10
20337;DHT22;10326;53.660;10.200;2022-10-29T04:05:38;17.90;85.90
20337;DHT22;10326;53.660;10.200;2022-10-29T04:08:05;17.90;85.90
20337;DHT22;10326;53.660;10.200;2022-10-29T04:10:32;17.90;85.80
20337;DHT22;10326;53.660;10.200;2022-10-29T04:12:59;18.00;85.80
20337;DHT22;10326;53.660;10.200;2022-10-29T04:15:26;17.90;85.50
20337;DHT22;10326;53.660;10.200;2022-10-29T04:17:53;17.90;85.50
20337;DHT22;10326;53.660;10.200;2022-10-29T04:20:21;17.90;85.50
20337;DHT22;10326;53.660;10.200;2022-10-29T04:22:50;17.90;85.40
20337;DHT22;10326;53.660;10.200;2022-10-29T04:25:17;17.90;85.40
20337;DHT22;10326;53.660;10.200;2022-10-29T04:27:44;17.90;85.30
20337;DHT22;10326;53.660;10.200;2022-10-29T04:30:11;17.90;85.20
20337;DHT22;10326;53.660;10.200;2022-10-29T04:32:39;17.90;85.10
20337;DHT22;10326;53.660;10.200;2022-10-29T04:35:06;17.90;85.10
20337;DHT22;10326;53.660;10.200;2022-10-29T04:37:35;17.80;85.00
20337;DHT22;10326;53.660;10.200;2022-10-29T04:40:02;17.80;85.00
20337;DHT22;10326;53.660;10.200;2022-10-29T04:42:34;17.80;85.20
20337;DHT22;10326;53.660;10.200;2022-10-29T04:45:02;17.80;85.50
20337;DHT22;10326;53.660;10.200;2022-10-29T04:47:29;17.80;85.60
20337;DHT22;10326;53.660;10.200;2022-10-29T04:49:56;17.80;85.80
20337;DHT22;10326;53.660;10.200;2022-10-29T04:52:23;17.80;85.90
20337;DHT22;10326;53.660;10.200;2022-10-29T04:54:52;17.80;86.00
20337;DHT22;10326;53.660;10.200;2022-10-29T04:57:19;17.80;86.10
20337;DHT22;10326;53.660;10.200;2022-10-29T04:59:46;17.80;86.10
20337;DHT22;10326;53.660;10.200;2022-10-29T05:02:13;17.90;86.10
20337;DHT22;10326;53.660;10.200;2022-10-29T05:04:40;17.90;86.10
20337;DHT22;10326;53.660;10.200;2022-10-29T05:07:07;17.90;86.20
20337;DHT22;10326;53.660;10.200;2022-10-29T05:09:34;17.90;86.20
20337;DHT22;10326;53.660;10.200;2022-10-29T05:12:03;17.90;86.20
20337;DHT22;10326;53.660;10.200;2022-10-29T05:14:30;17.90;86.30
20337;DHT22;10326;53.660;10.200;2022-10-29T05:16:57;17.90;86.20
20337;DHT22;10326;53.660;10.200;2022-10-29T05:19:24;17.90;86.20
20337;DHT22;10326;53.660;10.200;2022-10-29T05:21:51;17.90;86.30
20337;DHT22;10326;53.660;10.200;2022-10-29T05:24:18;18.00;86.30
20337;DHT22;10326;53.660;10.200;2022-10-29T05:26:45;18.00;86.30
20337;DHT22;10326;53.660;10.200;2022-10-29T05:29:13;18.00;86.30
20337;DHT22;10326;53.660;10.200;2022-10-29T05:31:40;18.00;86.30
20337;DHT22;10326;53.660;10.200;2022-10-29T05:34:07;18.00;86.20
20337;DHT22;10326;53.660;10.200;2022-10-29T05:36:34;18.00;86.20
20337;DHT22;10326;53.660;10.200;2022-10-29T05:39:01;18.00;86.30
20337;DHT22;10326;53.660;10.200;2022-10-29T05:41:28;18.00;86.30
20337;DHT22;10326;53.660;10.200;2022-10-29T05:43:56;18.00;86.30
20337;DHT22;10326;53.660;10.200;2022-10-29T05:46:24;18.00;86.20
20337;DHT22;10326;53.660;10.200;2022-10-29T05:48:51;18.00;86.30
20337;DHT22;10326;53.660;10.200;2022-10-29T05:51:18;18.00;86.20
20337;DHT22;10326;53.660;10.200;2022-10-29T05:53:46;18.00;86.20
20337;DHT22;10326;53.660;10.200;2022-10-29T05:56:13;18.00;86.20
20337;DHT22;10326;53.660;10.200;2022-10-29T05:58:40;18.00;86.20
20337;DHT22;10326;53.660;10.200;2022-10-29T06:01:08;18.00;86.10
20337;DHT22;10326;53.660;10.200;2022-10-29T06:03:37;18.00;86.10
20337;DHT22;10326;53.660;10.200;2022-10-29T06:06:05;18.00;86.10
20337;DHT22;10326;53.660;10.200;2022-10-29T06:08:32;18.00;86.10
20337;DHT22;10326;53.660;10.200;2022-10-29T06:11:00;18.00;86.00
20337;DHT22;10326;53.660;10.200;2022-10-29T06:13:28;18.00;86.10
20337;DHT22;10326;53.660;10.200;2022-10-29T06:15:57;17.90;85.80
20337;DHT22;10326;53.660;10.200;2022-10-29T06:18:25;17.90;85.80
20337;DHT22;10326;53.660;10.200;2022-10-29T06:20:57;17.90;85.90
20337;DHT22;10326;53.660;10.200;2022-10-29T06:23:25;17.90;85.90
20337;DHT22;10326;53.660;10.200;2022-10-29T06:25:52;17.90;85.90
20337;DHT22;10326;53.660;10.200;2022-10-29T06:28:19;17.90;85.90
20337;DHT22;10326;53.660;10.200;2022-10-29T06:30:47;17.90;86.40
20337;DHT22;10326;53.660;10.200;2022-10-29T06:33:16;17.90;85.80
20337;DHT22;10326;53.660;10.200;2022-10-29T06:35:43;17.90;85.80
20337;DHT22;10326;53.660;10.200;2022-10-29T06:38:12;17.80;85.70
20337;DHT22;10326;53.660;10.200;2022-10-29T06:40:39;17.80;85.60
20337;DHT22;10326;53.660;10.200;2022-10-29T06:43:09;17.80;85.50
20337;DHT22;10326;53.660;10.200;2022-10-29T06:45:37;17.90;85.50
20337;DHT22;10326;53.660;10.200;2022-10-29T06:48:05;17.80;85.40
20337;DHT22;10326;53.660;10.200;2022-10-29T06:50:32;17.80;85.30
20337;DHT22;10326;53.660;10.200;2022-10-29T06:53:00;17.80;85.20
20337;DHT22;10326;53.660;10.200;2022-10-29T06:55:31;17.80;85.20
20337;DHT22;10326;53.660;10.200;2022-10-29T06:58:00;17.80;85.20
20337;DHT22;10326;53.660;10.200;2022-10-29T07:00:28;17.70;85.10
20337;DHT22;10326;53.660;10.200;2022-10-29T07:02:56;17.70;85.00
20337;DHT22;10326;53.660;10.200;2022-10-29T07:05:23;17.70;84.90
20337;DHT22;10326;53.660;10.200;2022-10-29T07:07:53;17.70;84.90
20337;DHT22;10326;53.660;10.200;2022-10-29T07:10:21;17.60;84.80
20337;DHT22;10326;53.660;10.200;2022-10-29T07:12:50;17.60;84.80
20337;DHT22;10326;53.660;10.200;2022-10-29T07:15:17;17.60;84.80
20337;DHT22;10326;53.660;10.200;2022-10-29T07:17:53;17.60;84.90
20337;DHT22;10326;53.660;10.200;2022-10-29T07:20:21;17.60;85.00
20337;DHT22;10326;53.660;10.200;2022-10-29T07:22:48;17.60;85.60
20337;DHT22;10326;53.660;10.200;2022-10-29T07:25:15;17.60;85.20
20337;DHT22;10326;53.660;10.200;2022-10-29T07:27:42;17.50;85.30
20337;DHT22;10326;53.660;10.200;2022-10-29T07:30:11;17.60;85.50
20337;DHT22;10326;53.660;10.200;2022-10-29T07:32:38;17.60;85.80
20337;DHT22;10326;53.660;10.200;2022-10-29T07:35:05;17.50;85.80
20337;DHT22;10326;53.660;10.200;2022-10-29T07:37:33;17.60;86.00
20337;DHT22;10326;53.660;10.200;2022-10-29T07:40:00;17.60;86.00
20337;DHT22;10326;53.660;10.200;2022-10-29T07:42:27;17.60;86.10
20337;DHT22;10326;53.660;10.200;2022-10-29T07:44:54;17.60;86.10
20337;DHT22;10326;53.660;10.200;2022-10-29T07:47:22;17.60;86.20
20337;DHT22;10326;53.660;10.200;2022-10-29T07:49:49;17.60;86.30
20337;DHT22;10326;53.660;10.200;2022-10-29T07:52:16;17.60;86.40
20337;DHT22;10326;53.660;10.200;2022-10-29T07:54:43;17.60;86.50
20337;DHT22;10326;53.660;10.200;2022-10-29T07:57:10;17.60;86.60
20337;DHT22;10326;53.660;10.200;2022-10-29T07:59:37;17.60;86.80
20337;DHT22;10326;53.660;10.200;2022-10-29T08:02:04;17.60;86.90
20337;DHT22;10326;53.660;10.200;2022-10-29T08:04:35;17.70;87.10
20337;DHT22;10326;53.660;10.200;2022-10-29T08:07:03;17.70;87.00
20337;DHT22;10326;53.660;10.200;2022-10-29T08:09:30;17.70;87.00
20337;DHT22;10326;53.660;10.200;2022-10-29T08:11:57;17.70;87.00
20337;DHT22;10326;53.660;10.200;2022-10-29T08:14:24;17.80;87.00
20337;DHT22;10326;53.660;10.200;2022-10-29T08:16:52;17.80;87.10
20337;DHT22;10326;53.660;10.200;2022-10-29T08:19:19;17.90;87.20
20337;DHT22;10326;53.660;10.200;2022-10-29T08:21:47;17.90;87.10
20337;DHT22;10326;53.660;10.200;2022-10-29T08:24:14;17.90;86.90
20337;DHT22;10326;53.660;10.200;2022-10-29T08:26:42;17.90;86.60
20337;DHT22;10326;53.660;10.200;2022-10-29T08:29:09;17.90;86.60
20337;DHT22;10326;53.660;10.200;2022-10-29T08:31:36;17.90;86.60
20337;DHT22;10326;53.660;10.200;2022-10-29T08:34:03;17.90;86.60
20337;DHT22;10326;53.660;10.200;2022-10-29T08:36:30;17.90;86.70
20337;DHT22;10326;53.660;10.200;2022-10-29T08:38:58;17.90;86.70
20337;DHT22;10326;53.660;10.200;2022-10-29T08:41:35;17.90;86.70
20337;DHT22;10326;53.660;10.200;2022-10-29T08:44:29;17.90;86.80
20337;DHT22;10326;53.660;10.200;2022-10-29T08:47:17;17.90;86.80
20337;DHT22;10326;53.660;10.200;2022-10-29T08:49:50;18.00;86.80
20337;DHT22;10326;53.660;10.200;2022-10-29T08:52:28;18.00;87.00
20337;DHT22;10326;53.660;10.200;2022-10-29T08:55:04;18.00;87.10
20337;DHT22;10326;53.660;10.200;2022-10-29T08:57:38;18.00;87.10
20337;DHT22;10326;53.660;10.200;2022-10-29T09:00:14;18.10;87.10
20337;DHT22;10326;53.660;10.200;2022-10-29T09:02:42;18.10;87.10
20337;DHT22;10326;53.660;10.200;2022-10-29T09:05:13;18.10;87.10
20337;DHT22;10326;53.660;10.200;2022-10-29T09:08:00;18.10;87.30
20337;DHT22;10326;53.660;10.200;2022-10-29T09:10:40;18.20;87.50
20337;DHT22;10326;53.660;10.200;2022-10-29T09:13:27;18.20;87.40
20337;DHT22;10326;53.660;10.200;2022-10-29T09:16:20;18.20;87.40
20337;DHT22;10326;53.660;10.200;2022-10-29T09:22:06;18.30;87.20
20337;DHT22;10326;53.660;10.200;2022-10-29T09:24:44;18.40;87.00
20337;DHT22;10326;53.660;10.200;2022-10-29T09:27:22;18.40;87.00
20337;DHT22;10326;53.660;10.200;2022-10-29T09:30:03;18.40;87.10
20337;DHT22;10326;53.660;10.200;2022-10-29T09:32:36;18.40;87.10
20337;DHT22;10326;53.660;10.200;2022-10-29T09:35:11;18.50;87.20
20337;DHT22;10326;53.660;10.200;2022-10-29T09:37:44;18.50;87.30
20337;DHT22;10326;53.660;10.200;2022-10-29T09:40:28;18.60;87.20
20337;DHT22;10326;53.660;10.200;2022-10-29T09:43:00;18.60;87.10
20337;DHT22;10326;53.660;10.200;2022-10-29T09:45:40;18.60;87.10
20337;DHT22;10326;53.660;10.200;2022-10-29T09:48:17;18.60;86.80
20337;DHT22;10326;53.660;10.200;2022-10-29T09:50:55;18.70;86.70
20337;DHT22;10326;53.660;10.200;2022-10-29T09:53:26;18.70;86.60
20337;DHT22;10326;53.660;10.200;2022-10-29T09:55:54;18.80;86.80
20337;DHT22;10326;53.660;10.200;2022-10-29T09:58:23;18.80;86.70
20337;DHT22;10326;53.660;10.200;2022-10-29T10:00:52;18.80;86.60
20337;DHT22;10326;53.660;10.200;2022-10-29T10:03:25;18.80;86.60
20337;DHT22;10326;53.660;10.200;2022-10-29T10:05:59;18.90;86.60
20337;DHT22;10326;53.660;10.200;2022-10-29T10:08:28;18.90;86.70
20337;DHT22;10326;53.660;10.200;2022-10-29T10:10:58;18.90;86.90
20337;DHT22;10326;53.660;10.200;2022-10-29T10:13:29;18.90;86.90
20337;DHT22;10326;53.660;10.200;2022-10-29T10:15:59;19.00;86.90
20337;DHT22;10326;53.660;10.200;2022-10-29T10:18:38;19.00;87.00
20337;DHT22;10326;53.660;10.200;2022-10-29T10:21:08;19.10;87.00
20337;DHT22;10326;53.660;10.200;2022-10-29T10:23:42;19.10;86.90
20337;DHT22;10326;53.660;10.200;2022-10-29T10:26:31;19.20;86.70
20337;DHT22;10326;53.660;10.200;2022-10-29T10:29:09;19.20;86.60
20337;DHT22;10326;53.660;10.200;2022-10-29T10:31:39;19.20;86.50
20337;DHT22;10326;53.660;10.200;2022-10-29T10:34:15;19.30;86.70
20337;DHT22;10326;53.660;10.200;2022-10-29T10:36:47;19.30;86.50
20337;DHT22;10326;53.660;10.200;2022-10-29T10:39:25;19.30;86.40
20337;DHT22;10326;53.660;10.200;2022-10-29T10:41:54;19.40;86.40
20337;DHT22;10326;53.660;10.200;2022-10-29T10:44:24;19.40;86.20
20337;DHT22;10326;53.660;10.200;2022-10-29T10:46:54;19.40;86.00
20337;DHT22;10326;53.660;10.200;2022-10-29T10:49:29;19.40;86.10
20337;DHT22;10326;53.660;10.200;2022-10-29T10:51:58;19.40;86.00
20337;DHT22;10326;53.660;10.200;2022-10-29T10:54:31;19.40;86.00
20337;DHT22;10326;53.660;10.200;2022-10-29T10:57:03;19.40;86.00
20337;DHT22;10326;53.660;10.200;2022-10-29T10:59:45;19.40;86.10
20337;DHT22;10326;53.660;10.200;2022-10-29T11:02:24;19.40;86.20
20337;DHT22;10326;53.660;10.200;2022-10-29T11:04:58;19.40;86.30
20337;DHT22;10326;53.660;10.200;2022-10-29T11:07:32;19.40;86.30
20337;DHT22;10326;53.660;10.200;2022-10-29T11:10:02;19.40;86.30
20337;DHT22;10326;53.660;10.200;2022-10-29T11:12:35;19.50;86.20
20337;DHT22;10326;53.660;10.200;2022-10-29T11:15:11;19.50;86.20
20337;DHT22;10326;53.660;10.200;2022-10-29T11:17:46;19.50;86.20
20337;DHT22;10326;53.660;10.200;2022-10-29T11:20:21;19.60;86.40
20337;DHT22;10326;53.660;10.200;2022-10-29T11:22:58;19.60;86.40
20337;DHT22;10326;53.660;10.200;2022-10-29T11:25:35;19.60;86.40
20337;DHT22;10326;53.660;10.200;2022-10-29T11:28:18;19.60;86.10
20337;DHT22;10326;53.660;10.200;2022-10-29T11:30:53;19.60;86.40
20337;DHT22;10326;53.660;10.200;2022-10-29T11:33:29;19.70;86.30
20337;DHT22;10326;53.660;10.200;2022-10-29T11:36:10;19.70;86.00
20337;DHT22;10326;53.660;10.200;2022-10-29T11:38:45;19.70;85.90
20337;DHT22;10326;53.660;10.200;2022-10-29T11:41:21;19.70;86.00
20337;DHT22;10326;53.660;10.200;2022-10-29T11:43:50;19.70;85.90
20337;DHT22;10326;53.660;10.200;2022-10-29T11:46:27;19.70;85.90
20337;DHT22;10326;53.660;10.200;2022-10-29T11:49:06;19.70;86.00
20337;DHT22;10326;53.660;10.200;2022-10-29T11:51:44;19.70;86.10
20337;DHT22;10326;53.660;10.200;2022-10-29T11:54:28;19.70;86.10
20337;DHT22;10326;53.660;10.200;2022-10-29T11:57:13;19.70;85.90
20337;DHT22;10326;53.660;10.200;2022-10-29T11:59:57;19.70;86.00
20337;DHT22;10326;53.660;10.200;2022-10-29T12:03:04;19.70;85.80
20337;DHT22;10326;53.660;10.200;2022-10-29T12:05:42;19.80;86.00
20337;DHT22;10326;53.660;10.200;2022-10-29T12:08:28;19.70;86.00
20337;DHT22;10326;53.660;10.200;2022-10-29T12:11:08;19.80;86.10
20337;DHT22;10326;53.660;10.200;2022-10-29T12:13:50;19.80;86.30
20337;DHT22;10326;53.660;10.200;2022-10-29T12:16:30;19.80;86.30
20337;DHT22;10326;53.660;10.200;2022-10-29T12:19:14;19.80;86.20
20337;DHT22;10326;53.660;10.200;2022-10-29T12:21:49;19.80;86.40
20337;DHT22;10326;53.660;10.200;2022-10-29T12:24:30;19.90;86.50
20337;DHT22;10326;53.660;10.200;2022-10-29T12:27:06;19.90;86.50
20337;DHT22;10326;53.660;10.200;2022-10-29T12:29:43;19.90;86.30
20337;DHT22;10326;53.660;10.200;2022-10-29T12:32:21;19.90;86.40
20337;DHT22;10326;53.660;10.200;2022-10-29T12:34:58;19.90;86.40
20337;DHT22;10326;53.660;10.200;2022-10-29T12:37:33;19.90;86.50
20337;DHT22;10326;53.660;10.200;2022-10-29T12:40:11;20.00;86.60
20337;DHT22;10326;53.660;10.200;2022-10-29T12:42:42;20.00;86.80
20337;DHT22;10326;53.660;10.200;2022-10-29T12:45:26;20.10;86.70
20337;DHT22;10326;53.660;10.200;2022-10-29T12:48:04;20.10;86.60
20337;DHT22;10326;53.660;10.200;2022-10-29T12:50:48;20.20;86.70
20337;DHT22;10326;53.660;10.200;2022-10-29T12:53:27;20.20;86.60
20337;DHT22;10326;53.660;10.200;2022-10-29T12:55:59;20.20;86.60
20337;DHT22;10326;53.660;10.200;2022-10-29T12:58:47;20.30;86.70
20337;DHT22;10326;53.660;10.200;2022-10-29T13:01:42;20.30;86.50
20337;DHT22;10326;53.660;10.200;2022-10-29T13:04:24;20.30;86.40
20337;DHT22;10326;53.660;10.200;2022-10-29T13:07:02;20.40;86.40
20337;DHT22;10326;53.660;10.200;2022-10-29T13:09:31;20.40;86.40
20337;DHT22;10326;53.660;10.200;2022-10-29T13:12:02;20.40;86.30
20337;DHT22;10326;53.660;10.200;2022-10-29T13:14:36;20.40;86.20
20337;DHT22;10326;53.660;10.200;2022-10-29T13:17:21;20.40;86.10
20337;DHT22;10326;53.660;10.200;2022-10-29T13:19:54;20.40;86.30
20337;DHT22;10326;53.660;10.200;2022-10-29T13:22:50;20.40;86.30
20337;DHT22;10326;53.660;10.200;2022-10-29T13:25:49;20.50;86.40
20337;DHT22;10326;53.660;10.200;2022-10-29T13:28:46;20.50;86.30
20337;DHT22;10326;53.660;10.200;2022-10-29T13:31:43;20.50;86.10
20337;DHT22;10326;53.660;10.200;2022-10-29T13:37:46;20.50;86.00
20337;DHT22;10326;53.660;10.200;2022-10-29T13:43:40;20.50;86.00
20337;DHT22;10326;53.660;10.200;2022-10-29T13:49:16;20.50;86.00
20337;DHT22;10326;53.660;10.200;2022-10-29T13:52:03;20.50;85.80
20337;DHT22;10326;53.660;10.200;2022-10-29T13:54:40;20.50;85.80
20337;DHT22;10326;53.660;10.200;2022-10-29T13:57:17;20.50;85.80
20337;DHT22;10326;53.660;10.200;2022-10-29T13:59:48;20.50;86.40
20337;DHT22;10326;53.660;10.200;2022-10-29T14:02:33;20.50;85.90
20337;DHT22;10326;53.660;10.200;2022-10-29T14:05:16;20.50;86.00
20337;DHT22;10326;53.660;10.200;2022-10-29T14:07:50;20.50;85.90
20337;DHT22;10326;53.660;10.200;2022-10-29T14:10:24;20.50;85.90
20337;DHT22;10326;53.660;10.200;2022-10-29T14:12:56;20.50;85.90
20337;DHT22;10326;53.660;10.200;2022-10-29T14:15:26;20.50;86.00
20337;DHT22;10326;53.660;10.200;2022-10-29T14:17:53;20.50;85.90
20337;DHT22;10326;53.660;10.200;2022-10-29T14:20:23;20.50;85.90
20337;DHT22;10326;53.660;10.200;2022-10-29T14:22:51;20.50;85.90
20337;DHT22;10326;53.660;10.200;2022-10-29T14:25:30;20.50;86.00
20337;DHT22;10326;53.660;10.200;2022-10-29T14:28:18;20.50;86.10
20337;DHT22;10326;53.660;10.200;2022-10-29T14:30:59;20.50;86.10
20337;DHT22;10326;53.660;10.200;2022-10-29T14:33:29;20.50;86.10
20337;DHT22;10326;53.660;10.200;2022-10-29T14:36:03;20.50;86.00
20337;DHT22;10326;53.660;10.200;2022-10-29T14:38:39;20.40;85.90
20337;DHT22;10326;53.660;10.200;2022-10-29T14:41:10;20.50;86.00
20337;DHT22;10326;53.660;10.200;2022-10-29T14:43:38;20.50;85.90
20337;DHT22;10326;53.660;10.200;2022-10-29T14:46:27;20.40;86.00
20337;DHT22;10326;53.660;10.200;2022-10-29T14:49:00;20.50;86.10
20337;DHT22;10326;53.660;10.200;2022-10-29T14:51:36;20.40;86.00
20337;DHT22;10326;53.660;10.200;2022-10-29T14:54:05;20.50;86.10
20337;DHT22;10326;53.660;10.200;2022-10-29T14:56:37;20.40;86.10
20337;DHT22;10326;53.660;10.200;2022-10-29T14:59:14;20.40;86.10
20337;DHT22;10326;53.660;10.200;2022-10-29T15:01:47;20.40;86.10
20337;DHT22;10326;53.660;10.200;2022-10-29T15:04:22;20.40;86.10
20337;DHT22;10326;53.660;10.200;2022-10-29T15:06:52;20.40;86.10
20337;DHT22;10326;53.660;10.200;2022-10-29T15:09:22;20.40;86.10
20337;DHT22;10326;53.660;10.200;2022-10-29T15:12:05;20.40;86.20
20337;DHT22;10326;53.660;10.200;2022-10-29T15:14:36;20.40;86.20
20337;DHT22;10326;53.660;10.200;2022-10-29T15:17:09;20.40;86.10
20337;DHT22;10326;53.660;10.200;2022-10-29T15:19:42;20.40;86.10
20337;DHT22;10326;53.660;10.200;2022-10-29T15:22:17;20.40;86.10
20337;DHT22;10326;53.660;10.200;2022-10-29T15:24:47;20.40;86.10
20337;DHT22;10326;53.660;10.200;2022-10-29T15:27:17;20.40;86.10
20337;DHT22;10326;53.660;10.200;2022-10-29T15:29:47;20.40;86.00
20337;DHT22;10326;53.660;10.200;2022-10-29T15:32:16;20.40;86.00
20337;DHT22;10326;53.660;10.200;2022-10-29T15:34:47;20.30;85.90
20337;DHT22;10326;53.660;10.200;2022-10-29T15:37:38;20.30;85.90
20337;DHT22;10326;53.660;10.200;2022-10-29T15:40:10;20.30;85.90
20337;DHT22;10326;53.660;10.200;2022-10-29T15:42:40;20.30;85.80
20337;DHT22;10326;53.660;10.200;2022-10-29T15:48:28;20.30;85.80
20337;DHT22;10326;53.660;10.200;2022-10-29T15:50:59;20.30;86.40
20337;DHT22;10326;53.660;10.200;2022-10-29T15:53:27;20.20;85.60
20337;DHT22;10326;53.660;10.200;2022-10-29T15:55:55;20.20;85.50
20337;DHT22;10326;53.660;10.200;2022-10-29T15:58:24;20.20;85.60
20337;DHT22;10326;53.660;10.200;2022-10-29T16:00:51;20.10;85.50
20337;DHT22;10326;53.660;10.200;2022-10-29T16:03:19;20.10;85.60
20337;DHT22;10326;53.660;10.200;2022-10-29T16:05:48;20.10;85.60
20337;DHT22;10326;53.660;10.200;2022-10-29T16:08:22;20.10;85.70